createdAt,value
2023-05-05T00:00:13.330Z,14.00
2023-05-05T00:02:18.349Z,16.50
2023-05-05T00:04:09.822Z,12.40
2023-05-05T00:06:01.363Z,14.00
2023-05-05T00:07:52.806Z,14.60
2023-05-05T00:09:44.524Z,16.10
2023-05-05T00:11:35.971Z,16.60
2023-05-05T00:13:27.136Z,15.60
2023-05-05T00:15:19.117Z,15.30
2023-05-05T00:17:10.538Z,17.00
2023-05-05T00:19:01.603Z,16.10
2023-05-05T00:20:52.790Z,15.60
2023-05-05T00:22:44.443Z,15.60
2023-05-05T00:24:36.021Z,15.40
2023-05-05T00:26:27.519Z,11.60
2023-05-05T00:28:19.156Z,13.70
2023-05-05T00:30:10.765Z,12.70
2023-05-05T00:32:03.459Z,16.70
2023-05-05T00:33:54.871Z,16.90
2023-05-05T00:35:46.323Z,19.70
2023-05-05T00:37:37.603Z,15.70
2023-05-05T00:39:29.052Z,14.90
2023-05-05T00:41:20.428Z,15.20
2023-05-05T00:43:13.008Z,14.80
2023-05-05T00:45:04.566Z,13.20
2023-05-05T00:46:56.592Z,15.20
2023-05-05T00:48:48.205Z,13.70
2023-05-05T00:50:39.950Z,13.30
2023-05-05T00:52:31.545Z,13.00
2023-05-05T00:54:23.166Z,14.30
2023-05-05T00:56:15.964Z,14.10
2023-05-05T00:58:08.000Z,11.30
2023-05-05T00:59:59.758Z,15.20
2023-05-05T01:01:51.367Z,14.30
2023-05-05T01:03:43.278Z,12.30
2023-05-05T01:05:59.000Z,12.50
2023-05-05T01:09:02.254Z,15.40
2023-05-05T01:10:58.217Z,13.70
2023-05-05T01:13:08.133Z,12.20
2023-05-05T01:15:11.172Z,16.50
2023-05-05T01:17:11.417Z,16.60
2023-05-05T01:19:17.476Z,13.60
2023-05-05T01:21:31.741Z,12.70
2023-05-05T01:24:00.932Z,13.60
2023-05-05T01:26:12.776Z,14.00
2023-05-05T01:28:24.777Z,12.80
2023-05-05T01:30:33.397Z,13.30
2023-05-05T01:32:37.183Z,13.90
2023-05-05T01:34:40.513Z,12.00
2023-05-05T01:37:15.618Z,14.90
2023-05-05T01:39:09.321Z,12.90
2023-05-05T01:41:08.233Z,12.40
2023-05-05T01:43:01.137Z,12.00
2023-05-05T01:44:53.484Z,11.70
2023-05-05T01:48:38.918Z,10.90
2023-05-05T01:50:32.306Z,13.50
2023-05-05T01:52:24.128Z,11.40
2023-05-05T01:54:17.574Z,13.30
2023-05-05T01:56:10.285Z,11.80
2023-05-05T01:58:03.624Z,15.20
2023-05-05T01:59:56.255Z,11.20
2023-05-05T02:01:49.039Z,12.70
2023-05-05T02:03:42.063Z,17.70
2023-05-05T02:05:35.068Z,16.20
2023-05-05T02:07:27.836Z,14.40
2023-05-05T02:09:19.680Z,12.80
2023-05-05T02:20:27.255Z,17.60
2023-05-05T02:22:19.147Z,16.60
2023-05-05T02:24:11.528Z,16.40
2023-05-05T02:27:58.463Z,15.00
2023-05-05T02:29:57.139Z,15.40
2023-05-05T02:31:56.073Z,13.80
2023-05-05T02:33:49.591Z,15.80
2023-05-05T02:35:42.354Z,14.80
2023-05-05T02:37:34.338Z,17.20
2023-05-05T02:39:31.417Z,14.10
2023-05-05T02:41:24.826Z,14.20
2023-05-05T02:43:19.712Z,14.80
2023-05-05T02:45:13.339Z,15.50
2023-05-05T02:47:05.439Z,14.40
2023-05-05T02:48:59.768Z,12.90
2023-05-05T02:50:51.035Z,12.40
2023-05-05T02:52:43.208Z,15.30
2023-05-05T02:54:34.947Z,15.20
2023-05-05T02:56:34.722Z,16.90
2023-05-05T02:58:46.884Z,15.40
2023-05-05T03:00:44.757Z,13.50
2023-05-05T03:03:00.720Z,15.20
2023-05-05T03:04:56.964Z,14.40
2023-05-05T03:06:51.253Z,15.40
2023-05-05T03:08:46.029Z,16.70
2023-05-05T03:10:48.078Z,19.70
2023-05-05T03:12:49.914Z,14.50
2023-05-05T03:14:43.380Z,15.80
2023-05-05T03:16:41.383Z,13.30
2023-05-05T03:18:37.758Z,15.80
2023-05-05T03:20:29.752Z,14.30
2023-05-05T03:22:21.264Z,16.20
2023-05-05T03:24:19.874Z,14.40
2023-05-05T03:26:11.334Z,16.40
2023-05-05T03:28:02.881Z,16.20
2023-05-05T03:29:54.911Z,14.40
2023-05-05T03:31:46.485Z,15.00
2023-05-05T03:33:38.386Z,15.80
2023-05-05T03:35:30.396Z,16.10
2023-05-05T03:37:22.036Z,15.60
2023-05-05T03:39:13.470Z,17.00
2023-05-05T03:41:04.865Z,14.50
2023-05-05T03:42:56.602Z,15.70
2023-05-05T03:44:47.988Z,19.00
2023-05-05T03:46:39.923Z,15.90
2023-05-05T03:48:31.820Z,14.10
2023-05-05T03:50:24.421Z,15.90
2023-05-05T03:52:16.376Z,13.30
2023-05-05T03:54:08.212Z,14.80
2023-05-05T03:55:59.472Z,15.20
2023-05-05T03:57:51.109Z,16.40
2023-05-05T03:59:42.756Z,13.30
2023-05-05T04:01:35.758Z,14.40
2023-05-05T04:03:27.687Z,13.90
2023-05-05T04:05:19.974Z,15.20
2023-05-05T04:07:11.550Z,14.20
2023-05-05T04:09:03.537Z,16.90
2023-05-05T04:10:57.480Z,15.20
2023-05-05T04:12:48.917Z,13.10
2023-05-05T04:14:41.021Z,17.80
2023-05-05T04:16:32.639Z,15.20
2023-05-05T04:18:24.386Z,14.70
2023-05-05T04:20:15.953Z,14.50
2023-05-05T04:22:07.534Z,14.50
2023-05-05T04:23:58.964Z,17.00
2023-05-05T04:25:50.220Z,15.20
2023-05-05T04:27:42.020Z,13.40
2023-05-05T04:29:33.647Z,14.10
2023-05-05T04:31:25.391Z,14.30
2023-05-05T04:33:17.169Z,16.70
2023-05-05T04:35:09.165Z,13.80
2023-05-05T04:37:01.232Z,18.80
2023-05-05T04:38:52.565Z,14.20
2023-05-05T04:40:44.245Z,14.40
2023-05-05T04:42:36.666Z,14.20
2023-05-05T04:44:28.194Z,20.00
2023-05-05T04:46:19.589Z,18.00
2023-05-05T04:48:11.418Z,16.20
2023-05-05T04:50:03.337Z,15.70
2023-05-05T04:51:55.563Z,15.00
2023-05-05T04:53:47.005Z,16.10
2023-05-05T04:55:41.520Z,19.90
2023-05-05T04:57:33.101Z,14.70
2023-05-05T04:59:24.757Z,17.80
2023-05-05T05:01:16.880Z,15.70
2023-05-05T05:03:08.541Z,16.50
2023-05-05T05:05:00.168Z,16.30
2023-05-05T05:06:51.544Z,18.60
2023-05-05T05:08:43.153Z,16.30
2023-05-05T05:10:36.730Z,14.30
2023-05-05T05:12:28.372Z,19.10
2023-05-05T05:14:19.966Z,14.90
2023-05-05T05:16:11.740Z,17.20
2023-05-05T05:18:03.333Z,12.20
2023-05-05T05:19:56.250Z,16.30
2023-05-05T05:21:48.082Z,19.40
2023-05-05T05:23:39.693Z,15.70
2023-05-05T05:25:31.306Z,16.60
2023-05-05T05:27:23.061Z,11.30
2023-05-05T05:29:14.416Z,15.20
2023-05-05T05:31:06.922Z,14.00
2023-05-05T05:32:58.611Z,14.50
2023-05-05T05:34:50.446Z,15.80
2023-05-05T05:36:42.121Z,12.50
2023-05-05T05:38:33.557Z,13.20
2023-05-05T05:40:25.161Z,12.40
2023-05-05T05:42:16.603Z,11.60
2023-05-05T05:44:08.141Z,10.70
2023-05-05T05:45:59.644Z,15.60
2023-05-05T05:47:52.184Z,11.70
2023-05-05T05:49:43.879Z,11.80
2023-05-05T05:51:35.322Z,12.90
2023-05-05T05:53:26.968Z,13.50
2023-05-05T05:55:18.627Z,12.00
2023-05-05T05:57:10.071Z,12.20
2023-05-05T05:59:01.876Z,13.10
2023-05-05T06:00:53.460Z,11.40
2023-05-05T06:02:45.160Z,9.40
2023-05-05T06:04:36.799Z,10.90
2023-05-05T06:06:28.344Z,11.40
2023-05-05T06:08:19.859Z,10.30
2023-05-05T06:10:26.578Z,10.50
2023-05-05T06:12:19.764Z,11.90
2023-05-05T06:14:11.551Z,10.00
2023-05-05T06:16:03.439Z,10.10
2023-05-05T06:17:55.943Z,11.10
2023-05-05T06:19:47.949Z,11.30
2023-05-05T06:21:39.567Z,12.10
2023-05-05T06:23:31.110Z,10.10
2023-05-05T06:25:22.970Z,10.10
2023-05-05T06:27:14.528Z,12.40
2023-05-05T06:29:06.874Z,9.10
2023-05-05T06:30:58.401Z,8.50
2023-05-05T06:32:50.265Z,8.50
2023-05-05T06:34:43.415Z,11.40
2023-05-05T06:36:35.817Z,11.40
2023-05-05T06:38:27.198Z,8.80
2023-05-05T06:40:18.776Z,10.30
2023-05-05T06:42:10.603Z,12.30
2023-05-05T06:44:02.124Z,10.40
2023-05-05T06:45:53.975Z,10.80
2023-05-05T06:47:45.509Z,10.60
2023-05-05T06:49:37.353Z,12.80
2023-05-05T06:51:29.869Z,11.20
2023-05-05T06:53:21.259Z,9.90
2023-05-05T06:55:13.135Z,11.40
2023-05-05T06:57:05.011Z,11.20
2023-05-05T06:58:56.851Z,9.90
2023-05-05T07:00:48.518Z,11.30
2023-05-05T07:02:41.265Z,9.40
2023-05-05T07:06:24.127Z,11.90
2023-05-05T07:08:16.204Z,9.90
2023-05-05T07:10:09.950Z,12.30
2023-05-05T07:12:02.579Z,10.10
2023-05-05T07:15:47.046Z,10.70
2023-05-05T07:19:35.737Z,9.00
2023-05-05T07:21:47.733Z,10.80
2023-05-05T07:23:40.905Z,16.10
2023-05-05T07:25:32.677Z,9.00
2023-05-05T07:27:24.443Z,9.60
2023-05-05T07:29:16.727Z,10.10
2023-05-05T07:31:09.903Z,10.70
2023-05-05T07:33:01.911Z,9.00
2023-05-05T07:34:53.722Z,9.30
2023-05-05T07:37:07.294Z,8.70
2023-05-05T07:39:44.400Z,8.80
2023-05-05T07:41:39.235Z,10.50
2023-05-05T07:43:31.141Z,6.50
2023-05-05T07:45:22.854Z,12.30
2023-05-05T07:47:14.655Z,9.40
2023-05-05T07:49:06.889Z,9.00
2023-05-05T07:50:58.597Z,12.50
2023-05-05T07:52:56.390Z,9.60
2023-05-05T07:54:58.077Z,7.00
2023-05-05T07:56:49.618Z,7.60
2023-05-05T07:58:42.347Z,7.60
2023-05-05T08:00:34.247Z,8.30
2023-05-05T08:02:25.879Z,8.40
2023-05-05T08:04:17.856Z,7.20
2023-05-05T08:06:10.085Z,7.30
2023-05-05T08:09:53.310Z,8.10
2023-05-05T08:11:45.153Z,8.80
2023-05-05T08:13:36.752Z,9.00
2023-05-05T08:15:28.197Z,7.00
2023-05-05T08:17:19.738Z,6.80
2023-05-05T08:19:21.570Z,8.40
2023-05-05T08:21:19.342Z,8.60
2023-05-05T08:23:10.953Z,8.10
2023-05-05T08:26:55.575Z,6.70
2023-05-05T08:28:47.486Z,8.50
2023-05-05T08:30:39.276Z,8.50
2023-05-05T08:32:31.785Z,5.50
2023-05-05T08:34:23.505Z,7.40
2023-05-05T08:36:15.503Z,8.80
2023-05-05T08:38:06.970Z,5.50
2023-05-05T08:39:58.731Z,5.60
2023-05-05T08:41:50.237Z,6.60
2023-05-05T08:43:45.687Z,6.70
2023-05-05T08:45:40.915Z,7.00
2023-05-05T08:47:32.941Z,8.30
2023-05-05T08:49:25.441Z,8.00
2023-05-05T08:51:19.514Z,6.00
2023-05-05T08:53:16.013Z,8.10
2023-05-05T08:55:19.808Z,5.40
2023-05-05T08:57:12.718Z,4.40
2023-05-05T08:59:04.582Z,4.90
2023-05-05T09:00:56.944Z,10.30
2023-05-05T09:02:49.067Z,8.00
2023-05-05T09:04:41.018Z,4.40
2023-05-05T09:06:33.786Z,6.10
2023-05-05T09:08:26.068Z,6.20
2023-05-05T09:10:18.461Z,5.60
2023-05-05T09:12:10.005Z,6.20
2023-05-05T09:14:02.105Z,5.50
2023-05-05T09:15:53.746Z,5.30
2023-05-05T09:17:46.834Z,9.20
2023-05-05T09:20:07.336Z,4.50
2023-05-05T09:21:59.614Z,5.40
2023-05-05T09:24:11.511Z,6.50
2023-05-05T09:26:05.287Z,6.40
2023-05-05T09:27:57.150Z,6.80
2023-05-05T09:29:49.807Z,5.50
2023-05-05T09:31:41.385Z,4.20
2023-05-05T09:33:32.947Z,5.20
2023-05-05T09:35:24.392Z,4.70
2023-05-05T09:37:27.519Z,4.00
2023-05-05T09:39:20.613Z,6.20
2023-05-05T09:41:12.235Z,4.40
2023-05-05T09:43:04.129Z,3.80
2023-05-05T09:44:59.635Z,5.50
2023-05-05T09:46:55.306Z,5.00
2023-05-05T09:48:46.827Z,5.00
2023-05-05T09:50:44.793Z,4.60
2023-05-05T09:52:36.763Z,4.00
2023-05-05T09:54:30.130Z,4.40
2023-05-05T09:56:21.679Z,4.10
2023-05-05T09:58:20.814Z,3.50
2023-05-05T10:00:37.684Z,4.30
2023-05-05T10:02:32.920Z,4.60
2023-05-05T10:04:28.482Z,4.90
2023-05-05T10:06:22.112Z,4.80
2023-05-05T10:08:13.749Z,3.20
2023-05-05T10:10:11.051Z,4.50
2023-05-05T10:12:05.605Z,3.40
2023-05-05T10:13:57.500Z,5.80
2023-05-05T10:15:51.495Z,4.40
2023-05-05T10:18:02.381Z,5.00
2023-05-05T10:20:01.190Z,3.70
2023-05-05T10:21:54.974Z,3.00
2023-05-05T10:23:58.094Z,2.60
2023-05-05T10:26:02.906Z,4.50
2023-05-05T10:27:56.512Z,4.70
2023-05-05T10:30:07.389Z,4.40
2023-05-05T10:32:27.184Z,4.00
2023-05-05T10:34:29.854Z,2.60
2023-05-05T10:36:22.060Z,4.60
2023-05-05T10:38:14.523Z,8.30
2023-05-05T10:40:08.352Z,6.80
2023-05-05T10:42:04.472Z,4.90
2023-05-05T10:44:00.426Z,2.50
2023-05-05T10:45:53.767Z,3.20
2023-05-05T10:47:45.845Z,3.30
2023-05-05T10:49:57.521Z,3.80
2023-05-05T10:52:10.269Z,2.60
2023-05-05T10:54:29.436Z,5.80
2023-05-05T10:56:33.032Z,6.50
2023-05-05T10:58:51.172Z,7.60
2023-05-05T11:00:50.491Z,5.60
2023-05-05T11:02:42.256Z,3.50
2023-05-05T11:04:33.688Z,2.90
2023-05-05T11:06:25.421Z,3.10
2023-05-05T11:08:26.985Z,3.80
2023-05-05T11:10:20.770Z,3.80
2023-05-05T11:12:13.896Z,4.20
2023-05-05T11:14:20.149Z,4.10
2023-05-05T11:16:44.848Z,2.80
2023-05-05T11:18:38.326Z,3.70
2023-05-05T11:20:36.279Z,4.70
2023-05-05T11:22:28.980Z,2.90
2023-05-05T11:24:30.406Z,2.40
2023-05-05T11:26:49.411Z,3.10
2023-05-05T11:29:13.991Z,3.60
2023-05-05T11:31:35.924Z,3.00
2023-05-05T11:34:31.390Z,4.90
2023-05-05T11:36:53.566Z,3.60
2023-05-05T11:39:23.455Z,5.60
2023-05-05T11:41:33.486Z,2.80
2023-05-05T11:43:25.380Z,3.10
2023-05-05T11:45:24.085Z,3.60
2023-05-05T11:47:15.852Z,2.70
2023-05-05T11:49:09.473Z,3.20
2023-05-05T11:51:03.709Z,3.80
2023-05-05T11:52:55.203Z,3.10
2023-05-05T11:54:50.863Z,3.70
2023-05-05T11:56:53.633Z,3.40
2023-05-05T11:58:46.784Z,5.20
2023-05-05T12:00:38.304Z,3.00
2023-05-05T12:02:31.509Z,3.50
2023-05-05T12:04:23.419Z,2.90
2023-05-05T12:06:15.182Z,4.00
2023-05-05T12:08:06.891Z,3.60
2023-05-05T12:09:58.252Z,3.80
2023-05-05T12:11:56.194Z,3.10
2023-05-05T12:13:47.731Z,3.80
2023-05-05T12:15:39.049Z,6.60
2023-05-05T12:17:43.234Z,3.50
2023-05-05T12:19:36.675Z,5.70
2023-05-05T12:21:28.117Z,2.20
2023-05-05T12:23:20.321Z,3.60
2023-05-05T12:25:12.220Z,2.70
2023-05-05T12:27:11.872Z,2.70
2023-05-05T12:29:03.238Z,4.10
2023-05-05T12:30:59.052Z,2.20
2023-05-05T12:32:51.416Z,5.70
2023-05-05T12:34:42.867Z,4.50
2023-05-05T12:36:34.936Z,2.50
2023-05-05T12:38:26.597Z,4.20
2023-05-05T12:40:42.624Z,2.30
2023-05-05T12:42:39.039Z,3.10
2023-05-05T12:44:37.765Z,6.80
2023-05-05T12:46:29.871Z,3.60
2023-05-05T12:48:22.489Z,3.00
2023-05-05T12:50:13.782Z,3.10
2023-05-05T12:52:05.669Z,3.50
2023-05-05T12:54:08.226Z,1.90
2023-05-05T12:55:59.560Z,2.50
2023-05-05T12:58:06.815Z,2.60
2023-05-05T12:59:58.570Z,2.60
2023-05-05T13:01:52.818Z,3.50
2023-05-05T13:03:44.863Z,2.50
2023-05-05T13:05:36.746Z,6.90
2023-05-05T13:07:28.213Z,4.20
2023-05-05T13:09:34.083Z,3.20
2023-05-05T13:11:25.359Z,2.30
2023-05-05T13:13:17.486Z,2.80
2023-05-05T13:15:10.235Z,2.20
2023-05-05T13:17:02.085Z,2.80
2023-05-05T13:20:45.580Z,4.00
2023-05-05T13:22:37.293Z,5.20
2023-05-05T13:24:46.398Z,3.20
2023-05-05T13:26:41.447Z,3.80
2023-05-05T13:28:33.323Z,2.60
2023-05-05T13:30:25.109Z,2.90
2023-05-05T13:32:16.688Z,2.60
2023-05-05T13:34:08.201Z,5.30
2023-05-05T13:35:59.721Z,5.90
2023-05-05T13:37:51.499Z,2.90
2023-05-05T13:39:43.313Z,2.50
2023-05-05T13:41:35.148Z,4.10
2023-05-05T13:43:26.662Z,2.90
2023-05-05T13:45:19.833Z,2.10
2023-05-05T13:47:11.446Z,4.60
2023-05-05T13:49:03.330Z,2.10
2023-05-05T13:50:55.009Z,1.70
2023-05-05T13:52:46.372Z,4.70
2023-05-05T13:54:38.097Z,3.60
2023-05-05T13:56:30.054Z,3.40
2023-05-05T13:58:22.075Z,4.30
2023-05-05T14:00:14.817Z,3.00
2023-05-05T14:02:07.767Z,2.60
2023-05-05T14:03:59.452Z,4.60
2023-05-05T14:05:51.013Z,4.20
2023-05-05T14:07:42.912Z,6.80
2023-05-05T14:11:26.365Z,4.60
2023-05-05T14:13:17.746Z,2.50
2023-05-05T14:15:09.716Z,3.70
2023-05-05T14:17:01.664Z,3.40
2023-05-05T14:18:53.371Z,2.00
2023-05-05T14:20:44.655Z,2.50
2023-05-05T14:22:36.463Z,3.50
2023-05-05T14:24:27.812Z,2.50
2023-05-05T14:26:19.171Z,2.70
2023-05-05T14:28:11.079Z,3.20
2023-05-05T14:30:02.736Z,2.50
2023-05-05T14:31:54.638Z,3.70
2023-05-05T14:33:46.154Z,2.10
2023-05-05T14:35:37.865Z,3.90
2023-05-05T14:37:29.684Z,3.00
2023-05-05T14:39:21.502Z,5.30
2023-05-05T14:41:12.769Z,3.70
2023-05-05T14:43:04.556Z,2.90
2023-05-05T14:44:56.291Z,3.00
2023-05-05T14:46:49.741Z,2.80
2023-05-05T14:48:42.973Z,5.50
2023-05-05T14:50:34.797Z,2.10
2023-05-05T14:52:26.868Z,2.40
2023-05-05T14:54:27.223Z,2.80
2023-05-05T14:56:22.525Z,2.60
2023-05-05T14:58:14.111Z,3.50
2023-05-05T15:00:09.449Z,2.50
2023-05-05T15:02:01.399Z,2.30
2023-05-05T15:03:54.057Z,3.00
2023-05-05T15:05:45.721Z,2.30
2023-05-05T15:07:37.559Z,4.20
2023-05-05T15:09:28.990Z,4.00
2023-05-05T15:11:20.610Z,2.50
2023-05-05T15:13:12.528Z,7.30
2023-05-05T15:15:04.521Z,4.90
2023-05-05T15:16:56.019Z,3.60
2023-05-05T15:18:47.698Z,4.20
2023-05-05T15:20:39.577Z,2.80
2023-05-05T15:22:30.984Z,2.60
2023-05-05T15:24:22.272Z,2.70
2023-05-05T15:26:13.974Z,3.10
2023-05-05T15:28:05.734Z,2.00
2023-05-05T15:29:57.421Z,3.40
2023-05-05T15:31:48.918Z,3.40
2023-05-05T15:42:52.018Z,5.70
2023-05-05T15:44:43.484Z,3.70
2023-05-05T15:46:34.906Z,3.00
2023-05-05T15:48:26.445Z,2.30
2023-05-05T15:50:18.285Z,2.00
2023-05-05T15:52:10.245Z,2.30
2023-05-05T15:54:02.040Z,2.60
2023-05-05T15:55:53.853Z,2.40
2023-05-05T15:57:45.026Z,12.50
2023-05-05T15:59:36.516Z,14.20
2023-05-05T16:01:28.068Z,2.30
2023-05-05T16:03:20.082Z,7.30
2023-05-05T16:05:12.395Z,4.50
2023-05-05T16:08:58.073Z,2.60
2023-05-05T16:10:49.928Z,2.30
2023-05-05T16:12:41.855Z,2.20
2023-05-05T16:14:33.698Z,11.90
2023-05-05T16:16:25.601Z,4.80
2023-05-05T16:18:16.932Z,2.10
2023-05-05T16:20:09.062Z,1.90
2023-05-05T16:22:01.647Z,3.50
2023-05-05T16:23:52.917Z,4.00
2023-05-05T16:25:44.984Z,3.30
2023-05-05T16:27:36.688Z,1.90
2023-05-05T16:29:28.260Z,3.50
2023-05-05T16:31:19.680Z,2.30
2023-05-05T16:33:11.326Z,2.50
2023-05-05T16:35:03.313Z,2.10
2023-05-05T16:36:55.114Z,1.60
2023-05-05T16:38:46.744Z,3.40
2023-05-05T16:40:38.538Z,2.60
2023-05-05T16:42:30.148Z,3.00
2023-05-05T16:44:21.811Z,2.50
2023-05-05T16:46:13.205Z,2.40
2023-05-05T16:48:07.441Z,2.50
2023-05-05T16:50:00.258Z,4.00
2023-05-05T16:51:53.658Z,4.30
2023-05-05T16:53:46.615Z,4.60
2023-05-05T16:55:39.114Z,3.70
2023-05-05T16:57:31.472Z,3.20
2023-05-05T16:59:22.816Z,1.80
2023-05-05T17:01:15.083Z,1.90
2023-05-05T17:03:06.829Z,1.80
2023-05-05T17:04:58.545Z,2.10
2023-05-05T17:06:51.079Z,2.30
2023-05-05T17:10:34.313Z,2.80
2023-05-05T17:12:25.904Z,2.40
2023-05-05T17:14:17.602Z,3.00
2023-05-05T17:16:09.332Z,2.80
2023-05-05T17:18:00.932Z,3.20
2023-05-05T17:19:52.791Z,2.20
2023-05-05T17:21:44.246Z,3.20
2023-05-05T17:23:36.233Z,2.00
2023-05-05T17:25:28.344Z,2.50
2023-05-05T17:27:19.838Z,2.00
2023-05-05T17:29:13.088Z,1.60
2023-05-05T17:31:05.815Z,1.60
2023-05-05T17:32:57.641Z,1.80
2023-05-05T17:34:49.057Z,1.70
2023-05-05T17:36:40.562Z,3.60
2023-05-05T17:38:32.668Z,2.80
2023-05-05T17:40:25.206Z,4.10
2023-05-05T17:42:22.718Z,1.70
2023-05-05T17:44:14.585Z,1.80
2023-05-05T17:46:06.454Z,1.80
2023-05-05T17:47:57.924Z,3.40
2023-05-05T17:49:50.126Z,3.40
2023-05-05T17:51:41.875Z,2.70
2023-05-05T17:53:33.593Z,2.90
2023-05-05T17:55:25.079Z,2.80
2023-05-05T17:57:18.186Z,4.30
2023-05-05T17:59:09.578Z,2.10
2023-05-05T18:01:01.298Z,2.50
2023-05-05T18:02:53.152Z,2.40
2023-05-05T18:04:45.823Z,3.00
2023-05-05T18:08:28.820Z,2.30
2023-05-05T18:10:20.785Z,2.30
2023-05-05T18:12:12.271Z,2.20
2023-05-05T18:14:04.059Z,2.40
2023-05-05T18:15:56.618Z,3.50
2023-05-05T18:17:48.170Z,3.70
2023-05-05T18:19:43.075Z,5.30
2023-05-05T18:21:34.308Z,3.80
2023-05-05T18:23:26.098Z,4.00
2023-05-05T18:25:19.184Z,2.10
2023-05-05T18:27:10.760Z,4.00
2023-05-05T18:29:02.575Z,4.40
2023-05-05T18:30:54.000Z,3.00
2023-05-05T18:32:45.826Z,4.60
2023-05-05T18:34:37.450Z,5.40
2023-05-05T18:36:29.123Z,6.60
2023-05-05T18:38:21.497Z,4.50
2023-05-05T18:40:13.559Z,6.70
2023-05-05T18:42:05.499Z,6.70
2023-05-05T18:43:57.184Z,5.10
2023-05-05T18:45:48.651Z,5.60
2023-05-05T18:47:41.549Z,5.20
2023-05-05T18:49:33.476Z,5.60
2023-05-05T18:51:25.061Z,5.10
2023-05-05T18:53:17.855Z,4.40
2023-05-05T18:55:09.790Z,5.70
2023-05-05T18:57:01.665Z,5.30
2023-05-05T18:58:53.421Z,5.10
2023-05-05T19:00:44.815Z,7.50
2023-05-05T19:02:36.525Z,4.60
2023-05-05T19:04:31.577Z,6.60
2023-05-05T19:06:23.277Z,5.10
2023-05-05T19:08:15.022Z,5.20
2023-05-05T19:10:07.602Z,5.40
2023-05-05T19:11:58.952Z,6.10
2023-05-05T19:13:51.433Z,6.30
2023-05-05T19:15:43.333Z,6.80
2023-05-05T19:17:35.258Z,5.90
2023-05-05T19:19:26.903Z,5.30
2023-05-05T19:21:18.423Z,5.90
2023-05-05T19:23:10.037Z,9.20
2023-05-05T19:25:01.572Z,6.00
2023-05-05T19:26:53.439Z,4.60
2023-05-05T19:28:44.947Z,5.40
2023-05-05T19:30:36.952Z,4.30
2023-05-05T19:32:29.089Z,5.10
2023-05-05T19:34:21.344Z,3.70
2023-05-05T19:36:13.000Z,5.70
2023-05-05T19:38:04.493Z,5.10
2023-05-05T19:39:56.557Z,7.00
2023-05-05T19:41:48.324Z,4.40
2023-05-05T19:43:39.847Z,6.90
2023-05-05T19:45:31.990Z,5.40
2023-05-05T19:49:15.127Z,5.70
